Pagrindinis puslapis
METAR-TAF:

METAR-TAF

Oro uostai :

New Stuyahok, Aliaska, Jungtinės Amerikos Valstijos

platuma: 59-27-06N, ilguma: 157-22-23W, Aukštis: 111 m

Dabartinis oras

Ataskaita buvo paskelbta 43 minutes, ne 17:56 UTC
Vėjas 8 kt iš Šiaurės/Šiaurės Rytų
Temperatūra -13°C
Drėgmė 92%
Slėgis 1011 hPa
Matomumas: 14.5 km
Apsiniaukę ne aukštis 400 ft
sniegas

METAR: PANW 161756Z AUTO 03008KT 9SM -SN OVC004 M13/M14 A2986 RMK AO2 SLP125 P0000 60000 T11281139 11128 21139 55000 FZRANO

Laikas: 09:39 (18:39 UTC)


TAF: trūkstamas

Orai ataskaitas ir orų prognozės (METAR, TAF).

turimą stotys yra geltonos ir raudonos taškus žemėlapyje.

Perkelti pele per norėdami pamatyti stoties vardą.

Tada spustelėkite, norėdami matyti oro stebėjimo ir prognozės.

Norėdami pakeisti žemėlapį: spustelėkite ant žalios mygtukų su juodo kryžiaus žemyn,; žalią mygtuką su brūkšneliu, jei norite nutolinti; arba žalių rodyklių gretimoms žemėlapius.


METAR-TAF: